Time;durP1;ratioP1;P1;durP2;ratioP2;P2;SDS_P1;SDS_P2;PMS_P1;PMS_P2;Temp;Humidity;BMP_temperature;BMP_pressure;BME280_temperature;BME280_humidity;BME280_pressure;Samples;Min_cycle;Max_cycle;Signal;HPM_P1;HPM_P2
2023/11/24 00:00:50;;;;;;;8.93;1.55;;;10.00;99.90;;;;;;5049631;28;20327;-72
2023/11/24 00:03:16;;;;;;;10.02;1.63;;;9.90;99.90;;;;;;5061476;28;20091;-72
2023/11/24 00:05:42;;;;;;;7.82;1.52;;;9.80;99.90;;;;;;5069085;28;20024;-72
2023/11/24 00:08:08;;;;;;;6.45;1.30;;;9.80;99.90;;;;;;5061027;28;20031;-72
2023/11/24 00:10:34;;;;;;;5.60;1.08;;;9.70;99.90;;;;;;5051302;28;20029;-72
2023/11/24 00:13:01;;;;;;;7.35;1.38;;;9.70;99.90;;;;;;5069270;28;20044;-72
2023/11/24 00:15:26;;;;;;;11.23;1.13;;;9.60;99.90;;;;;;5069346;28;20032;-72
2023/11/24 00:17:52;;;;;;;9.02;1.60;;;9.50;99.90;;;;;;5069403;28;20814;-72
2023/11/24 00:20:18;;;;;;;5.32;1.40;;;9.50;99.90;;;;;;5069039;28;20040;-72
2023/11/24 00:22:44;;;;;;;8.32;1.70;;;9.50;99.90;;;;;;5068827;28;20020;-72
2023/11/24 00:25:09;;;;;;;6.05;1.30;;;9.40;99.90;;;;;;5068825;28;20020;-72
2023/11/24 00:27:37;;;;;;;9.13;1.95;;;9.40;99.90;;;;;;5051053;28;20060;-72
2023/11/24 00:30:07;;;;;;;7.13;1.38;;;9.40;99.90;;;;;;5068994;28;20013;-72
2023/11/24 00:32:35;;;;;;;6.40;1.58;;;9.30;99.90;;;;;;5068803;28;20094;-72
2023/11/24 00:35:01;;;;;;;7.25;1.30;;;9.30;99.90;;;;;;5068565;28;20024;-72
2023/11/24 00:37:27;;;;;;;6.70;1.42;;;9.30;99.90;;;;;;5069216;28;20025;-73
2023/11/24 00:39:55;;;;;;;7.63;1.90;;;9.30;99.90;;;;;;5050214;28;20171;-71
2023/11/24 00:42:21;;;;;;;10.48;2.42;;;9.30;99.90;;;;;;5068329;28;20092;-72
2023/11/24 00:44:47;;;;;;;7.18;1.60;;;9.20;99.90;;;;;;5048782;28;20029;-72
2023/11/24 00:47:12;;;;;;;13.20;2.00;;;9.20;99.90;;;;;;5068470;28;20179;-72
2023/11/24 00:49:39;;;;;;;11.10;2.50;;;9.30;99.90;;;;;;5068681;28;20033;-72
2023/11/24 00:52:05;;;;;;;11.52;1.90;;;9.30;99.90;;;;;;5068563;28;20009;-72
2023/11/24 00:54:31;;;;;;;10.45;1.88;;;9.20;99.90;;;;;;5068196;28;20187;-72
2023/11/24 00:56:57;;;;;;;8.00;1.75;;;9.30;99.90;;;;;;5068921;28;20115;-72
2023/11/24 00:59:22;;;;;;;13.20;1.60;;;9.30;99.90;;;;;;5068515;28;20777;-72
2023/11/24 01:01:48;;;;;;;12.00;1.95;;;9.20;99.90;;;;;;5068678;28;20771;-72
2023/11/24 01:04:15;;;;;;;8.63;1.52;;;9.20;99.90;;;;;;5054215;28;20024;-72
2023/11/24 01:06:41;;;;;;;11.88;1.58;;;9.20;99.90;;;;;;5068281;28;20029;-72
2023/11/24 01:09:09;;;;;;;12.48;1.63;;;9.30;99.90;;;;;;5068040;28;20078;-72
2023/11/24 01:11:35;;;;;;;10.60;1.75;;;9.20;99.90;;;;;;5068422;28;20104;-72
2023/11/24 01:14:02;;;;;;;9.45;1.50;;;9.20;99.90;;;;;;5067886;28;20119;-72
2023/11/24 01:16:28;;;;;;;10.27;2.13;;;9.20;99.90;;;;;;5068522;28;20028;-72
2023/11/24 01:18:56;;;;;;;13.88;2.45;;;9.20;99.90;;;;;;5067942;28;20059;-72
2023/11/24 01:21:22;;;;;;;13.20;1.80;;;9.20;99.90;;;;;;5068475;28;20032;-72
2023/11/24 01:23:47;;;;;;;8.77;1.60;;;9.20;99.90;;;;;;5049379;28;20097;-72
2023/11/24 01:26:15;;;;;;;12.02;1.55;;;9.20;99.90;;;;;;5068306;28;20033;-72
2023/11/24 01:28:41;;;;;;;14.23;1.75;;;9.20;99.90;;;;;;5067959;28;20021;-71
2023/11/24 01:31:07;;;;;;;14.55;2.40;;;9.10;99.90;;;;;;5067722;28;20025;-72
2023/11/24 01:33:33;;;;;;;12.77;1.95;;;9.20;99.90;;;;;;5067527;28;20032;-73
2023/11/24 01:35:59;;;;;;;10.95;1.83;;;9.10;99.90;;;;;;5067549;28;20108;-72
2023/11/24 01:38:24;;;;;;;16.63;1.95;;;9.10;99.90;;;;;;5060298;28;20410;-73
2023/11/24 01:40:51;;;;;;;10.48;1.60;;;9.10;99.90;;;;;;5060633;28;20020;-72
2023/11/24 01:43:17;;;;;;;10.57;1.67;;;9.00;99.90;;;;;;5067836;28;20028;-73
2023/11/24 01:45:44;;;;;;;16.35;1.83;;;9.10;99.90;;;;;;5066949;28;20033;-72
2023/11/24 01:48:10;;;;;;;12.25;1.88;;;9.10;99.90;;;;;;5067409;28;20028;-72
2023/11/24 01:50:37;;;;;;;11.02;1.95;;;9.00;99.90;;;;;;5066918;28;20036;-72
2023/11/24 01:53:04;;;;;;;15.93;2.08;;;9.00;99.90;;;;;;5067387;28;20397;-72
2023/11/24 01:55:30;;;;;;;13.30;2.38;;;9.00;99.90;;;;;;5066197;28;20044;-72
2023/11/24 01:57:56;;;;;;;11.57;2.65;;;9.00;99.90;;;;;;5067530;28;20051;-73
2023/11/24 02:00:23;;;;;;;15.02;2.70;;;8.90;99.90;;;;;;5067033;28;20569;-73
2023/11/24 02:02:49;;;;;;;14.02;2.28;;;8.90;99.90;;;;;;5067214;28;20135;-72
2023/11/24 02:05:17;;;;;;;15.57;2.08;;;8.90;99.90;;;;;;5066802;28;20031;-72
2023/11/24 02:07:44;;;;;;;7.63;2.25;;;8.80;99.90;;;;;;5067251;28;20020;-72
2023/11/24 02:10:11;;;;;;;13.77;2.30;;;8.80;99.90;;;;;;5058423;28;20020;-73
2023/11/24 02:12:37;;;;;;;13.63;2.03;;;8.80;99.90;;;;;;5067383;28;20013;-72
2023/11/24 02:15:03;;;;;;;14.23;2.20;;;8.80;99.90;;;;;;5067017;28;20032;-72
2023/11/24 02:17:29;;;;;;;14.43;2.35;;;8.70;99.90;;;;;;5066861;28;20024;-72
2023/11/24 02:19:57;;;;;;;10.38;1.95;;;8.70;99.90;;;;;;5048547;28;20055;-73
2023/11/24 02:22:23;;;;;;;12.13;2.30;;;8.70;99.90;;;;;;5049081;28;20047;-73
2023/11/24 02:24:48;;;;;;;11.68;1.90;;;8.70;99.90;;;;;;5066715;28;20059;-73
2023/11/24 02:27:18;;;;;;;10.25;2.00;;;8.70;99.90;;;;;;5066891;28;20473;-72
2023/11/24 02:29:44;;;;;;;12.70;1.63;;;8.70;99.90;;;;;;5066369;28;20111;-73
2023/11/24 02:32:10;;;;;;;11.85;1.98;;;8.70;99.90;;;;;;5048566;28;20017;-72
2023/11/24 02:34:35;;;;;;;12.98;1.90;;;8.70;99.90;;;;;;5066161;28;20021;-72
2023/11/24 02:37:02;;;;;;;10.93;1.80;;;8.70;99.90;;;;;;5067019;28;20024;-73
2023/11/24 02:39:28;;;;;;;12.15;1.88;;;8.70;99.90;;;;;;5048215;28;20055;-73
2023/11/24 02:41:54;;;;;;;20.20;2.22;;;8.70;99.90;;;;;;5066678;28;20028;-73
2023/11/24 02:44:20;;;;;;;9.90;1.70;;;8.60;99.90;;;;;;5054216;28;20504;-72
2023/11/24 02:46:47;;;;;;;12.63;1.90;;;8.60;99.90;;;;;;5044707;28;20051;-72
2023/11/24 02:49:13;;;;;;;12.95;2.33;;;8.60;99.90;;;;;;5066322;28;20107;-72
2023/11/24 02:51:39;;;;;;;14.35;2.45;;;8.60;99.90;;;;;;5066758;28;20071;-73
2023/11/24 02:54:06;;;;;;;10.55;1.75;;;8.50;99.90;;;;;;5064991;28;20021;-73
2023/11/24 02:56:33;;;;;;;8.90;1.60;;;8.50;99.90;;;;;;5066614;28;20091;-72
2023/11/24 02:58:58;;;;;;;14.20;2.30;;;8.50;99.90;;;;;;5066169;28;20028;-72
2023/11/24 03:01:24;;;;;;;12.07;1.95;;;8.50;99.90;;;;;;5065247;28;20025;-72
2023/11/24 03:03:52;;;;;;;14.05;1.75;;;8.50;99.90;;;;;;5066163;28;20523;-73
2023/11/24 03:06:18;;;;;;;9.32;1.90;;;8.50;99.90;;;;;;5068388;28;20020;-72
2023/11/24 03:08:44;;;;;;;12.30;1.60;;;8.50;99.90;;;;;;5070372;28;20024;-73
2023/11/24 03:11:10;;;;;;;9.32;1.70;;;8.50;99.90;;;;;;5069330;28;20024;-72
2023/11/24 03:13:36;;;;;;;13.68;1.85;;;8.50;99.90;;;;;;5069216;28;20079;-72
2023/11/24 03:16:05;;;;;;;16.48;2.03;;;8.50;99.90;;;;;;5070289;28;20024;-73
2023/11/24 03:18:31;;;;;;;10.55;2.25;;;8.40;99.90;;;;;;5070199;28;20085;-72
2023/11/24 03:20:57;;;;;;;12.50;1.67;;;8.50;99.90;;;;;;5070146;28;20028;-73
2023/11/24 03:23:23;;;;;;;9.25;1.75;;;8.40;99.90;;;;;;5052333;28;20025;-73
2023/11/24 03:25:49;;;;;;;10.20;1.83;;;8.40;99.90;;;;;;5069585;28;20579;-73
2023/11/24 03:28:16;;;;;;;13.38;1.65;;;8.30;99.90;;;;;;5052065;28;20020;-73
2023/11/24 03:30:41;;;;;;;10.68;1.73;;;8.30;99.90;;;;;;5069800;28;20025;-72
2023/11/24 03:33:07;;;;;;;6.90;1.42;;;8.30;99.90;;;;;;5052012;28;20397;-72
2023/11/24 03:35:33;;;;;;;6.70;1.40;;;8.30;99.90;;;;;;5069609;28;20020;-73
2023/11/24 03:37:59;;;;;;;11.60;1.65;;;8.30;99.90;;;;;;5066128;28;20060;-72
2023/11/24 03:40:24;;;;;;;9.23;1.50;;;8.30;99.90;;;;;;5059309;28;20021;-73
2023/11/24 03:42:51;;;;;;;10.10;2.13;;;8.30;99.90;;;;;;5069868;28;20029;-73
2023/11/24 03:45:17;;;;;;;12.15;1.42;;;8.30;99.90;;;;;;5069357;28;20029;-73
2023/11/24 03:47:42;;;;;;;8.75;1.73;;;8.30;99.90;;;;;;5069909;28;20020;-73
2023/11/24 03:50:10;;;;;;;11.75;1.67;;;8.30;99.90;;;;;;5069574;28;20497;-73
2023/11/24 03:52:35;;;;;;;7.50;1.60;;;8.40;99.90;;;;;;5069802;28;20025;-73
2023/11/24 03:55:01;;;;;;;8.38;1.65;;;8.30;99.90;;;;;;5069309;28;20093;-73
2023/11/24 03:57:27;;;;;;;12.50;1.52;;;8.40;99.90;;;;;;5069960;28;20032;-73
2023/11/24 03:59:53;;;;;;;6.95;1.27;;;8.40;99.90;;;;;;5069229;28;20517;-73
2023/11/24 04:02:18;;;;;;;9.98;1.60;;;8.40;99.90;;;;;;5069514;28;20025;-73
2023/11/24 04:04:46;;;;;;;5.78;1.20;;;8.40;99.90;;;;;;5069139;28;20078;-73
2023/11/24 04:07:15;;;;;;;9.02;1.98;;;8.40;99.90;;;;;;5069510;28;20439;-73
2023/11/24 04:09:41;;;;;;;13.38;1.88;;;8.40;99.90;;;;;;5069174;28;20086;-73
2023/11/24 04:12:07;;;;;;;6.75;1.65;;;8.40;99.90;;;;;;5051162;28;20024;-73
2023/11/24 04:14:32;;;;;;;9.15;1.48;;;8.40;99.90;;;;;;5069191;28;20036;-73
2023/11/24 04:16:58;;;;;;;9.45;1.88;;;8.40;99.90;;;;;;5068159;28;20528;-73
2023/11/24 04:19:24;;;;;;;13.13;1.73;;;8.40;99.90;;;;;;5068909;28;20508;-73
2023/11/24 04:21:50;;;;;;;13.30;1.50;;;8.30;99.90;;;;;;5069484;28;20035;-73
2023/11/24 04:24:15;;;;;;;12.82;2.08;;;8.30;99.90;;;;;;5068925;28;20039;-73
2023/11/24 04:26:41;;;;;;;7.82;1.38;;;8.30;99.90;;;;;;5068932;28;20025;-72
2023/11/24 04:29:07;;;;;;;6.97;1.40;;;8.30;99.90;;;;;;5068615;28;20074;-73
2023/11/24 04:31:32;;;;;;;10.50;1.80;;;8.30;99.90;;;;;;5064058;28;20152;-72
2023/11/24 04:33:58;;;;;;;12.00;1.33;;;8.30;99.90;;;;;;5068584;28;20021;-72
2023/11/24 04:36:24;;;;;;;11.15;2.20;;;8.30;99.90;;;;;;5068577;28;20390;-73
2023/11/24 04:38:50;;;;;;;12.18;1.85;;;8.30;99.90;;;;;;5057800;28;20052;-73
2023/11/24 04:41:15;;;;;;;9.27;1.50;;;8.20;99.90;;;;;;5065372;28;20637;-73
2023/11/24 04:43:41;;;;;;;9.50;1.65;;;8.20;99.90;;;;;;5068497;28;20633;-73
2023/11/24 04:46:08;;;;;;;6.53;1.50;;;8.20;99.90;;;;;;5044666;28;20055;-73
2023/11/24 04:48:35;;;;;;;7.13;1.60;;;8.20;99.90;;;;;;5065657;28;20419;-73
2023/11/24 04:51:01;;;;;;;11.10;2.08;;;8.20;99.90;;;;;;5068537;28;20421;-73
2023/11/24 04:53:26;;;;;;;7.10;1.13;;;8.20;99.90;;;;;;5068550;28;20023;-73
2023/11/24 04:55:52;;;;;;;11.75;1.75;;;8.10;99.90;;;;;;5067818;28;20033;-73
2023/11/24 04:58:18;;;;;;;10.30;1.30;;;8.10;99.90;;;;;;5068328;28;20490;-72
2023/11/24 05:00:44;;;;;;;4.75;0.93;;;8.10;99.90;;;;;;5067481;28;20031;-73
2023/11/24 05:03:09;;;;;;;8.30;1.42;;;8.10;99.90;;;;;;5059849;28;20028;-73
2023/11/24 05:05:38;;;;;;;8.20;1.52;;;8.10;99.90;;;;;;5067988;28;20598;-72
2023/11/24 05:08:04;;;;;;;10.65;1.27;;;8.10;99.90;;;;;;5068442;28;20861;-73
2023/11/24 05:10:30;;;;;;;7.00;1.13;;;8.10;99.90;;;;;;5054223;28;20020;-73
2023/11/24 05:12:56;;;;;;;8.95;1.40;;;8.10;99.90;;;;;;5062748;28;20035;-73
2023/11/24 05:15:21;;;;;;;8.20;1.08;;;8.00;99.90;;;;;;5067743;28;20028;-72
2023/11/24 05:17:47;;;;;;;6.20;1.30;;;8.00;99.90;;;;;;5080875;28;20090;-73
2023/11/24 05:20:12;;;;;;;9.52;1.25;;;8.00;99.90;;;;;;5067708;28;20020;-73
2023/11/24 05:22:41;;;;;;;5.30;1.15;;;8.00;99.90;;;;;;5049851;28;20017;-72
2023/11/24 05:25:07;;;;;;;9.18;1.35;;;8.00;99.90;;;;;;5067935;28;20099;-72
2023/11/24 05:27:33;;;;;;;9.38;1.33;;;8.00;99.90;;;;;;5067736;28;20059;-73
2023/11/24 05:29:59;;;;;;;5.32;0.82;;;7.90;99.90;;;;;;5067267;28;20501;-72
2023/11/24 05:32:24;;;;;;;6.80;1.38;;;7.90;99.90;;;;;;5067747;28;20108;-73
2023/11/24 05:34:53;;;;;;;4.75;0.80;;;7.90;99.90;;;;;;5049380;28;20048;-73
2023/11/24 05:37:19;;;;;;;6.70;1.00;;;7.90;99.90;;;;;;5067643;28;20102;-73
2023/11/24 05:39:45;;;;;;;5.22;1.05;;;7.90;99.90;;;;;;5053046;28;20071;-72
2023/11/24 05:42:10;;;;;;;5.68;1.05;;;7.90;99.90;;;;;;5067753;28;20028;-72
2023/11/24 05:44:36;;;;;;;6.05;1.30;;;7.90;99.90;;;;;;5066959;28;20029;-73
2023/11/24 05:47:04;;;;;;;5.00;1.10;;;7.90;99.90;;;;;;5067323;28;20025;-73
2023/11/24 05:49:32;;;;;;;9.90;1.30;;;7.90;99.90;;;;;;5067431;28;20052;-73
2023/11/24 05:51:58;;;;;;;8.73;1.33;;;7.90;99.90;;;;;;5067305;28;20013;-73
2023/11/24 05:54:24;;;;;;;6.10;1.42;;;7.90;99.90;;;;;;5065893;28;20079;-73
2023/11/24 05:56:49;;;;;;;8.68;1.42;;;7.90;99.90;;;;;;5067041;28;20377;-73
2023/11/24 05:59:15;;;;;;;8.43;1.40;;;7.90;99.90;;;;;;5067224;28;20028;-72
2023/11/24 06:01:42;;;;;;;7.10;1.23;;;7.90;99.90;;;;;;5067085;28;20029;-72
2023/11/24 06:04:09;;;;;;;5.15;0.93;;;7.90;99.90;;;;;;5067017;28;20025;-73
2023/11/24 06:06:35;;;;;;;10.63;1.17;;;7.90;99.90;;;;;;5066740;28;20028;-73
2023/11/24 06:09:01;;;;;;;8.95;1.17;;;7.80;99.90;;;;;;5065738;28;20548;-73
2023/11/24 06:11:27;;;;;;;7.60;1.48;;;7.80;99.90;;;;;;5067001;28;20035;-73
2023/11/24 06:13:53;;;;;;;7.45;0.90;;;7.80;99.90;;;;;;5053720;28;20123;-73
2023/11/24 06:16:20;;;;;;;7.13;1.48;;;7.80;99.90;;;;;;5066356;28;20028;-74
2023/11/24 06:18:46;;;;;;;6.35;0.95;;;7.80;99.90;;;;;;5067325;28;20025;-73
2023/11/24 06:21:12;;;;;;;12.23;1.83;;;7.90;99.90;;;;;;5066472;28;20363;-73
2023/11/24 06:23:45;;;;;;;6.60;1.38;;;7.90;99.90;;;;;;5067067;28;20553;-72
2023/11/24 06:26:11;;;;;;;5.95;1.48;;;7.80;99.90;;;;;;5066579;28;20052;-73
2023/11/24 06:28:37;;;;;;;10.15;1.45;;;7.80;99.90;;;;;;5058110;28;20457;-72
2023/11/24 06:31:03;;;;;;;6.25;1.10;;;7.80;99.90;;;;;;5066254;28;20023;-73
2023/11/24 06:33:29;;;;;;;6.32;1.20;;;7.70;99.90;;;;;;5066923;28;20563;-73
2023/11/24 06:35:59;;;;;;;9.82;1.23;;;7.70;99.90;;;;;;5066452;28;20047;-73
2023/11/24 06:38:25;;;;;;;8.68;1.67;;;7.70;99.90;;;;;;5059385;28;20099;-73
2023/11/24 06:40:52;;;;;;;5.43;1.15;;;7.60;99.90;;;;;;5059300;28;20098;-73
2023/11/24 06:43:18;;;;;;;7.70;1.70;;;7.60;99.90;;;;;;5066876;28;20028;-72
2023/11/24 06:45:47;;;;;;;8.73;1.40;;;7.60;99.90;;;;;;5065805;28;20036;-72
2023/11/24 06:48:12;;;;;;;11.23;1.75;;;7.60;99.90;;;;;;5066718;28;20079;-72
2023/11/24 06:50:38;;;;;;;12.40;1.52;;;7.60;99.90;;;;;;5066196;28;20024;-72
2023/11/24 06:53:03;;;;;;;6.80;1.33;;;7.60;99.90;;;;;;5065955;28;20032;-72
2023/11/24 06:55:29;;;;;;;9.05;1.55;;;7.60;99.90;;;;;;5065383;28;20540;-71
2023/11/24 06:57:55;;;;;;;4.55;0.95;;;7.50;99.90;;;;;;5066358;28;20048;-72
2023/11/24 07:00:20;;;;;;;9.98;1.58;;;7.50;99.90;;;;;;5065488;28;20048;-72
2023/11/24 07:02:48;;;;;;;5.32;1.10;;;7.50;99.90;;;;;;5066374;28;20036;-72
2023/11/24 07:05:14;;;;;;;5.57;1.25;;;7.50;99.90;;;;;;5065703;28;20583;-72
2023/11/24 07:07:40;;;;;;;7.47;1.25;;;7.50;99.90;;;;;;5065665;28;20473;-72
2023/11/24 07:10:07;;;;;;;4.85;1.10;;;7.40;99.90;;;;;;5065936;28;20023;-71
2023/11/24 07:12:33;;;;;;;7.20;1.33;;;7.40;99.90;;;;;;5065694;28;20070;-72
2023/11/24 07:15:03;;;;;;;7.53;1.20;;;7.40;99.90;;;;;;5066267;28;20047;-72
2023/11/24 07:17:31;;;;;;;3.90;0.82;;;7.40;99.90;;;;;;5065946;28;20047;-73
2023/11/24 07:19:57;;;;;;;8.00;1.58;;;7.40;99.90;;;;;;5065386;28;20032;-72
2023/11/24 07:22:24;;;;;;;12.32;1.55;;;7.40;99.90;;;;;;5065783;28;20039;-72
2023/11/24 07:24:51;;;;;;;9.23;1.38;;;7.30;99.90;;;;;;5047388;28;20013;-72
2023/11/24 07:27:17;;;;;;;8.18;1.20;;;7.30;99.90;;;;;;5065866;28;20501;-72
2023/11/24 07:29:43;;;;;;;6.25;0.95;;;7.30;99.90;;;;;;5046821;28;20024;-72
2023/11/24 07:32:14;;;;;;;8.27;1.27;;;7.30;99.90;;;;;;5066232;28;20029;-71
2023/11/24 07:34:40;;;;;;;4.57;1.30;;;7.30;99.90;;;;;;5065735;28;20047;-73
2023/11/24 07:37:06;;;;;;;8.38;1.08;;;7.20;99.90;;;;;;5064210;28;20056;-72
2023/11/24 07:39:33;;;;;;;4.63;0.98;;;7.20;99.90;;;;;;5047041;28;20055;-71
2023/11/24 07:41:59;;;;;;;4.97;1.02;;;7.20;99.90;;;;;;5065611;28;20024;-73
2023/11/24 07:44:29;;;;;;;6.65;1.30;;;7.20;99.90;;;;;;5064708;28;20035;-73
2023/11/24 07:46:55;;;;;;;4.27;1.13;;;7.20;99.90;;;;;;5062844;28;20024;-72
2023/11/24 07:49:21;;;;;;;6.53;1.30;;;7.20;99.90;;;;;;5063943;28;20813;-73
2023/11/24 07:51:47;;;;;;;8.45;1.15;;;7.20;99.90;;;;;;5066774;28;20028;-73
2023/11/24 07:54:13;;;;;;;7.78;1.55;;;7.10;99.90;;;;;;5069520;28;20508;-72
2023/11/24 07:56:38;;;;;;;7.75;1.20;;;7.20;99.90;;;;;;5067362;28;20063;-72
2023/11/24 07:59:04;;;;;;;4.55;0.85;;;7.20;99.90;;;;;;5065931;28;20016;-72
2023/11/24 08:01:30;;;;;;;5.43;1.00;;;7.20;99.90;;;;;;5065554;28;20031;-72
2023/11/24 08:03:56;;;;;;;7.65;1.48;;;7.20;99.90;;;;;;5067321;28;20485;-73
2023/11/24 08:06:22;;;;;;;13.13;1.30;;;7.20;99.90;;;;;;5067569;28;20144;-72
2023/11/24 08:08:47;;;;;;;8.43;1.48;;;7.20;99.90;;;;;;5049314;28;20107;-72
2023/11/24 08:11:13;;;;;;;5.45;1.20;;;7.20;99.90;;;;;;5067722;28;20012;-72
2023/11/24 08:13:39;;;;;;;6.38;0.90;;;7.10;99.90;;;;;;5061228;28;20031;-72
2023/11/24 08:16:05;;;;;;;5.65;1.15;;;7.10;99.90;;;;;;5068857;28;20117;-72
2023/11/24 08:18:31;;;;;;;9.73;0.95;;;7.10;99.90;;;;;;5068883;28;20561;-72
2023/11/24 08:20:58;;;;;;;3.67;0.80;;;7.10;99.90;;;;;;5067829;28;20099;-72
2023/11/24 08:23:24;;;;;;;5.47;0.95;;;7.10;99.90;;;;;;5051166;28;20043;-72
2023/11/24 08:25:51;;;;;;;7.15;1.25;;;7.10;99.90;;;;;;5064223;28;20032;-72
2023/11/24 08:28:16;;;;;;;4.53;0.70;;;7.10;99.90;;;;;;5068857;28;20056;-73
2023/11/24 08:30:43;;;;;;;7.72;1.00;;;7.10;99.90;;;;;;5068707;28;20063;-72
2023/11/24 08:33:09;;;;;;;6.45;0.70;;;7.10;99.90;;;;;;5050753;28;20013;-72
2023/11/24 08:35:34;;;;;;;5.32;1.27;;;7.10;99.90;;;;;;5068263;28;20086;-72
2023/11/24 08:38:00;;;;;;;6.05;0.80;;;7.10;99.90;;;;;;5068112;28;20130;-73
2023/11/24 08:40:26;;;;;;;6.85;0.85;;;7.00;99.90;;;;;;5057018;28;20029;-73
2023/11/24 08:42:53;;;;;;;7.07;1.30;;;7.00;99.90;;;;;;5067055;28;20021;-73
2023/11/24 08:45:18;;;;;;;9.18;1.20;;;7.00;99.90;;;;;;5049773;28;20082;-72
2023/11/24 08:47:44;;;;;;;6.43;1.10;;;7.00;99.90;;;;;;5067970;28;20032;-73
2023/11/24 08:50:12;;;;;;;2.58;0.55;;;7.00;99.90;;;;;;5067777;28;20566;-72
2023/11/24 08:52:38;;;;;;;5.22;0.80;;;7.00;99.90;;;;;;5067582;28;20477;-72
2023/11/24 08:55:06;;;;;;;3.13;0.47;;;7.00;99.90;;;;;;5067673;28;20031;-72
2023/11/24 08:57:32;;;;;;;4.55;0.82;;;6.90;99.90;;;;;;5049756;28;20510;-73
2023/11/24 08:59:58;;;;;;;4.53;0.98;;;6.90;99.90;;;;;;5067108;28;20036;-72
2023/11/24 09:02:26;;;;;;;5.78;0.70;;;6.80;99.90;;;;;;5067962;28;20414;-72
2023/11/24 09:04:52;;;;;;;1.50;0.30;;;6.80;99.90;;;;;;5067039;28;20525;-72
2023/11/24 09:07:18;;;;;;;4.38;0.70;;;6.80;99.90;;;;;;5067442;28;20107;-72
2023/11/24 09:09:44;;;;;;;5.07;0.52;;;6.90;99.90;;;;;;5067394;28;20090;-72
2023/11/24 09:12:10;;;;;;;2.85;0.57;;;6.90;99.90;;;;;;5049420;28;20024;-72
2023/11/24 09:14:38;;;;;;;4.55;0.75;;;6.90;99.90;;;;;;5067861;28;20039;-72
2023/11/24 09:17:04;;;;;;;8.27;0.65;;;7.00;99.90;;;;;;5067340;28;20493;-73
2023/11/24 09:19:31;;;;;;;1.65;0.40;;;7.00;99.90;;;;;;5068007;28;20028;-72
2023/11/24 09:22:00;;;;;;;4.82;1.13;;;7.00;99.90;;;;;;5067701;28;20028;-72
2023/11/24 09:24:25;;;;;;;7.63;1.35;;;7.00;99.90;;;;;;5067964;28;20033;-72
2023/11/24 09:26:53;;;;;;;2.30;0.70;;;7.00;99.90;;;;;;5071263;28;20031;-72
2023/11/24 09:29:19;;;;;;;7.35;0.70;;;7.00;99.90;;;;;;5063644;28;20074;-72
2023/11/24 09:31:48;;;;;;;3.35;0.70;;;7.00;99.90;;;;;;5063012;28;20021;-72
2023/11/24 09:34:13;;;;;;;5.38;0.95;;;7.00;99.90;;;;;;5066970;28;20021;-72
2023/11/24 09:36:42;;;;;;;3.70;0.50;;;7.00;99.90;;;;;;5062849;28;20405;-72
2023/11/24 09:39:17;;;;;;;3.70;0.60;;;7.10;99.90;;;;;;5066724;28;20058;-72
2023/11/24 09:41:46;;;;;;;4.25;0.77;;;7.10;99.90;;;;;;5063813;28;20478;-73
2023/11/24 09:44:14;;;;;;;2.45;0.70;;;7.10;99.90;;;;;;5060826;28;20409;-72
2023/11/24 09:46:43;;;;;;;4.47;1.05;;;7.10;99.90;;;;;;5066270;28;20041;-72
2023/11/24 09:49:10;;;;;;;5.43;1.05;;;7.10;99.90;;;;;;5065579;28;20023;-72
2023/11/24 09:51:38;;;;;;;3.47;0.60;;;7.20;99.90;;;;;;5066163;28;20071;-73
2023/11/24 09:54:05;;;;;;;4.35;0.90;;;7.30;99.90;;;;;;5048934;28;20028;-73
2023/11/24 09:56:31;;;;;;;4.57;0.77;;;7.40;99.90;;;;;;5065537;28;20095;-72
2023/11/24 09:58:57;;;;;;;4.38;0.70;;;7.40;99.90;;;;;;5066164;28;20481;-72
2023/11/24 10:01:23;;;;;;;3.95;0.50;;;7.40;99.90;;;;;;5065498;28;20037;-72
2023/11/24 10:03:53;;;;;;;5.55;1.08;;;7.40;99.90;;;;;;5060634;28;20078;-72
2023/11/24 10:06:19;;;;;;;5.72;0.80;;;7.50;99.90;;;;;;5050977;28;20359;-72
2023/11/24 10:08:45;;;;;;;7.20;1.20;;;7.50;99.90;;;;;;5044462;28;20016;-72
2023/11/24 10:11:17;;;;;;;9.38;1.17;;;7.60;99.90;;;;;;5062319;28;20040;-73
2023/11/24 10:13:45;;;;;;;5.43;0.80;;;7.60;99.90;;;;;;5066701;28;20024;-72
2023/11/24 10:16:14;;;;;;;6.25;0.90;;;7.60;99.90;;;;;;5057301;28;20024;-72
2023/11/24 10:18:41;;;;;;;4.80;0.85;;;7.60;99.90;;;;;;5043389;28;20029;-73
2023/11/24 10:21:07;;;;;;;6.05;0.95;;;7.60;99.90;;;;;;5065944;28;20060;-73
2023/11/24 10:23:33;;;;;;;4.13;0.90;;;7.50;99.90;;;;;;5065941;28;20017;-73
2023/11/24 10:25:59;;;;;;;7.03;0.80;;;7.50;99.90;;;;;;5046144;28;20083;-72
2023/11/24 10:28:26;;;;;;;7.07;1.45;;;7.50;99.90;;;;;;5056609;28;20036;-73
2023/11/24 10:30:54;;;;;;;7.25;0.98;;;7.50;99.90;;;;;;5047316;28;20024;-73
2023/11/24 10:33:21;;;;;;;3.05;0.82;;;7.40;99.90;;;;;;5066290;28;20071;-73
2023/11/24 10:35:47;;;;;;;5.28;0.85;;;7.40;99.90;;;;;;5051086;28;20535;-72
2023/11/24 10:38:19;;;;;;;6.45;0.90;;;7.40;99.90;;;;;;5067011;28;20040;-72
2023/11/24 10:40:51;;;;;;;5.68;0.80;;;7.30;99.90;;;;;;5073756;28;20028;-72
2023/11/24 10:43:20;;;;;;;6.63;1.05;;;7.30;99.90;;;;;;5053702;28;20023;-72
2023/11/24 10:45:51;;;;;;;4.97;0.75;;;7.40;99.90;;;;;;5081988;28;20075;-72
2023/11/24 10:48:22;;;;;;;4.05;0.65;;;7.40;99.90;;;;;;5072479;28;20074;-72
2023/11/24 10:51:02;;;;;;;6.10;0.68;;;7.40;99.90;;;;;;5078894;28;20495;-72
2023/11/24 10:53:38;;;;;;;4.63;0.73;;;7.40;99.90;;;;;;5080843;28;20099;-72
2023/11/24 10:56:04;;;;;;;6.50;1.23;;;7.40;99.90;;;;;;5074661;28;20050;-72
2023/11/24 10:58:33;;;;;;;2.90;0.63;;;7.50;99.90;;;;;;5063710;28;20128;-73
2023/11/24 11:01:02;;;;;;;6.00;0.98;;;7.60;99.90;;;;;;5066043;28;20024;-73
2023/11/24 11:03:29;;;;;;;6.07;0.93;;;7.70;99.90;;;;;;5065589;28;20048;-72
2023/11/24 11:06:29;;;;;;;5.78;1.20;;;7.80;99.90;;;;;;5065986;28;20032;-72
2023/11/24 11:09:19;;;;;;;5.13;0.90;;;7.90;99.90;;;;;;5072066;28;20034;-73
2023/11/24 11:12:13;;;;;;;6.65;1.48;;;7.90;99.90;;;;;;5046493;28;20021;-73
2023/11/24 11:14:42;;;;;;;10.50;1.95;;;7.90;99.90;;;;;;5054586;28;20366;-73
2023/11/24 11:17:26;;;;;;;6.93;1.30;;;7.90;99.90;;;;;;5065497;28;20024;-73
2023/11/24 11:20:14;;;;;;;6.22;0.98;;;8.00;99.90;;;;;;5063274;28;20024;-73
2023/11/24 11:22:43;;;;;;;7.32;1.13;;;8.00;99.90;;;;;;5067694;28;20036;-73
2023/11/24 11:25:27;;;;;;;13.48;1.80;;;8.00;99.90;;;;;;5076251;28;20055;-72
2023/11/24 11:27:56;;;;;;;11.52;1.35;;;8.10;99.90;;;;;;5074755;28;20032;-73
2023/11/24 11:30:23;;;;;;;10.95;1.65;;;8.10;99.90;;;;;;5079390;28;20139;-73
2023/11/24 11:33:24;;;;;;;12.05;2.88;;;8.10;99.90;;;;;;5054536;28;20023;-72
2023/11/24 11:36:09;;;;;;;11.88;1.70;;;8.10;99.90;;;;;;5033839;28;20108;-73
2023/11/24 11:38:45;;;;;;;11.68;1.58;;;8.10;99.90;;;;;;5070061;28;20040;-73
2023/11/24 11:41:41;;;;;;;15.18;2.40;;;8.10;99.90;;;;;;5075458;28;20030;-73
2023/11/24 11:44:22;;;;;;;11.88;1.92;;;8.20;99.90;;;;;;5076093;28;20048;-72
2023/11/24 11:47:03;;;;;;;11.80;2.13;;;8.30;99.90;;;;;;5065448;28;20038;-73
2023/11/24 11:49:32;;;;;;;15.60;2.10;;;8.50;99.90;;;;;;5069629;28;20093;-73
2023/11/24 11:52:06;;;;;;;13.75;1.88;;;8.60;99.90;;;;;;5069192;28;20490;-73
2023/11/24 11:54:33;;;;;;;7.53;2.30;;;8.90;99.90;;;;;;5060879;28;20028;-73
2023/11/24 11:56:59;;;;;;;12.77;1.77;;;9.10;99.90;;;;;;5072620;28;20028;-73
2023/11/24 11:59:25;;;;;;;9.13;1.38;;;9.20;99.90;;;;;;5069808;28;20033;-73
2023/11/24 12:01:51;;;;;;;14.25;2.08;;;9.40;99.90;;;;;;5068959;28;20024;-73
2023/11/24 12:04:17;;;;;;;15.07;2.97;;;9.50;99.90;;;;;;5079518;28;20028;-73
2023/11/24 12:06:43;;;;;;;12.18;2.03;;;9.50;99.90;;;;;;5068553;28;20035;-73
2023/11/24 12:09:10;;;;;;;9.45;1.60;;;9.60;99.90;;;;;;5050686;28;20627;-73
2023/11/24 12:11:37;;;;;;;12.13;2.45;;;9.70;99.90;;;;;;5069034;28;20190;-73
2023/11/24 12:14:03;;;;;;;14.38;2.92;;;9.90;99.90;;;;;;5071158;28;20021;-73
2023/11/24 12:16:33;;;;;;;9.70;2.28;;;9.90;99.90;;;;;;5070995;28;20025;-73
2023/11/24 12:19:04;;;;;;;9.88;1.80;;;9.90;99.90;;;;;;5069096;28;20362;-74
2023/11/24 12:21:30;;;;;;;;;;;9.90;99.90;;;;;;5068661;28;20028;-74
2023/11/24 12:23:56;;;;;;;14.85;1.70;;;9.90;99.90;;;;;;5050051;28;19912;-73
2023/11/24 12:26:22;;;;;;;12.02;2.60;;;9.90;99.90;;;;;;5070379;28;20035;-73
2023/11/24 12:28:48;;;;;;;12.90;2.60;;;10.10;99.90;;;;;;5071331;28;20045;-74
2023/11/24 12:31:13;;;;;;;12.27;2.50;;;10.10;99.90;;;;;;5072427;28;20051;-74
2023/11/24 12:33:50;;;;;;;8.95;1.75;;;10.00;99.90;;;;;;5058120;28;20024;-73
2023/11/24 12:36:16;;;;;;;13.65;1.92;;;9.90;99.90;;;;;;5053721;28;20046;-73
2023/11/24 12:38:43;;;;;;;15.73;2.53;;;9.80;99.90;;;;;;5066011;28;20055;-73
2023/11/24 12:41:10;;;;;;;11.60;2.20;;;9.70;99.90;;;;;;5049419;28;20419;-74
2023/11/24 12:43:37;;;;;;;10.38;1.90;;;9.60;99.90;;;;;;5068362;28;20081;-74
2023/11/24 12:46:03;;;;;;;8.98;1.52;;;9.60;99.90;;;;;;5069175;28;20033;-74
2023/11/24 12:48:34;;;;;;;12.02;2.75;;;9.70;99.90;;;;;;5067772;28;20108;-74
2023/11/24 12:51:00;;;;;;;17.92;2.78;;;9.70;99.90;;;;;;5049743;28;20029;-73
2023/11/24 12:53:27;;;;;;;16.02;2.45;;;9.60;99.90;;;;;;5069492;28;20099;-74